メインページ
METAR-TAF:

METAR-TAF

空港 :

マドリード, スペイン

アドルフォ・スアレス・マドリード=バラハス空港

緯度: 40-27N, 経度: 003-33W, 海抜: 609m

現時点の気象観測

当レポートは29分前の05:30(UTC)に作成
北/北東の風 3kt
気温 21°C
湿度 49%
気圧 1021 hPa
視程10km以上
1,500メートル以下は雲なし、積乱雲なし

METAR: LEMD 200530Z 02003KT CAVOK 21/10 Q1021 NOSIG

時間: 07:59 (05:59 UTC)

予報

当レポートは59分前の05:00(UTC)に作成
予報は20日の 06時(UTC)から 21日の 12時(UTC)まで有効
変向風 5kt
視程10km以上
1,500メートル以下は雲なし、積乱雲なし
確率 40% :
20日の 06時(UTC)から 20日の 09時(UTC)まで一時的に
北/北東の風 10kt
20日の 19時(UTC)から 20日の 21時(UTC)まで徐々に
北/北東の風 10kt
21日の 00時(UTC)から 21日の 02時(UTC)まで徐々に
変向風 5kt

TAF: LEMD 200500Z 2006/2112 VRB05KT CAVOK TX37/2016Z TN21/2006Z PROB40 TEMPO 2006/2009 03010KT BECMG 2019/2021 02010KT BECMG 2100/2102 VRB05KT

4,000以上の空港の気象観測と天気予報(METAR報とTAF報)

利用可能な観測所は地図上に黄色い丸と赤い丸で示す。

丸の上にカーソルを重ねると観測所名を参照できる。

次にクリックすると気象観測と天気予報を参照できる。

マップの切り替え:黒色「×」印の緑ボタンをクリックして拡大、「-」印の緑ボタンをクリックして縮小、緑色の三角印をクリックして隣りの地図に切り替え


METAR-TAF: